aviador You're here:

LFRK Decoded Metar

CAEN in FRANCE
Report Time2017-11-22 05:00:00
UTC Time2017-11-22 05:23:06
Flight Rules vfr VFR
Wind200° at 10 kt
W.Decomp.*RWY 23: 8.7 kt HW 4.8 kt LCW
RWY 13: 3.3 kt HW 9.5 kt RCW
W.Rank200° ranks 9
Current wind is above 200° avg. (8.9)
Visibility9999 m
Phenomena:N/A
Clouds:N/A
Expected CloudBase > 1,200 ft AGL from Temp-Dew spread
CeilingNone
Temp11°C (ISA -4)
Dew Point08°C (82% RH)
AAT6.9°C
QNH1008 hPa
Density Alt112 ft
Elevation220 ft
Report Wrong Elevation
Raw Report
METAR LFRK 220500Z AUTO 20010KT CAVOK 11/08 Q1008=

Extra information for LFRK:More info

Metar Taf Metar & Taf Last 4 Metars F.Rules Stats Wind Profile Meteogram Temp Stats Airport Information Weather charts Add Link Nearby VenuesMetar ALERT Operation Metar Decoded Social comments